.
WxDataArchive / Data Records for 2009-11-19
2009-11-18 November 2009 2009-11-20

Data Records for Thursday, 19 November 2009

Time	Temp	Chill	HIndex	Humid	Dewpt	 Wind 	HiWind	WindDir	Rain 	Barom 
-----	----	-----	------	-----	-----	------	------	-------	-----	----- 
00:00	44.9	44.9	44.9	93	43.0	0	4	248	0.00	30.088 
00:05	44.8	44.8	44.8	93	42.9	0	2	225	0.00	30.088 
00:10	44.8	44.8	44.8	94	43.2	0	1	225	0.00	30.088 
00:15	44.6	44.6	44.6	94	43.0	0	0	---	0.00	30.084 
00:20	44.6	44.6	44.6	94	43.0	0	0	---	0.00	30.084 
00:25	44.6	44.6	44.6	94	43.0	0	0	---	0.00	30.084 
00:30	44.6	44.6	44.6	94	43.0	0	0	---	0.00	30.084 
00:35	44.6	44.6	44.6	94	43.0	0	0	---	0.00	30.084 
00:40	44.5	44.5	44.5	94	42.9	0	1	225	0.00	30.084 
00:45	44.5	44.5	44.5	94	42.9	0	0	---	0.00	30.075 
00:50	44.5	44.5	44.5	94	42.9	0	0	---	0.00	30.075 
00:55	44.3	44.3	44.3	94	42.7	0	0	---	0.00	30.075 
01:00	44.3	44.3	44.3	94	42.7	0	0	---	0.00	30.079 
01:05	44.3	44.3	44.3	94	42.7	0	0	---	0.00	30.079 
01:10	44.3	44.3	44.3	94	42.7	0	0	---	0.00	30.079 
01:15	44.2	44.2	44.2	94	42.6	0	0	---	0.00	30.079 
01:20	44.2	44.2	44.2	94	42.6	0	0	---	0.00	30.079 
01:25	44.2	44.2	44.2	94	42.6	0	0	---	0.00	30.079 
01:30	44.2	44.2	44.2	94	42.6	0	0	---	0.00	30.075 
01:35	44.1	44.1	44.1	94	42.5	0	0	---	0.00	30.075 
01:40	44.1	44.1	44.1	95	42.8	0	0	---	0.00	30.075 
01:45	44.1	44.1	44.1	95	42.8	0	0	---	0.00	30.075 
01:50	44.1	44.1	44.1	95	42.8	0	0	---	0.00	30.075 
01:55	44.1	44.1	44.1	95	42.8	0	0	---	0.00	30.075 
02:00	44.1	44.1	44.1	95	42.8	0	0	---	0.00	30.084 
02:05	43.9	43.9	43.9	95	42.6	0	0	---	0.00	30.084 
02:10	43.9	43.9	43.9	95	42.6	0	0	---	0.00	30.084 
02:15	43.9	43.9	43.9	95	42.6	0	0	---	0.00	30.085 
02:20	43.9	43.9	43.9	95	42.6	0	0	---	0.00	30.085 
02:25	43.9	43.9	43.9	95	42.6	0	0	---	0.00	30.085 
02:30	43.9	43.9	43.9	95	42.6	0	0	---	0.00	30.085 
02:35	43.8	43.8	43.8	95	42.5	0	0	---	0.00	30.085 
02:40	43.8	43.8	43.8	95	42.5	0	0	---	0.00	30.085 
02:45	43.8	43.8	43.8	95	42.5	0	0	---	0.00	30.084 
02:50	43.8	43.8	43.8	95	42.5	0	0	---	0.00	30.084 
02:55	43.8	43.8	43.8	95	42.5	0	0	---	0.00	30.084 
03:00	43.8	43.8	43.8	95	42.5	0	0	---	0.00	30.080 
03:05	43.8	43.8	43.8	95	42.5	0	0	---	0.00	30.080 
03:10	43.6	43.6	43.6	95	42.3	0	0	---	0.00	30.080 
03:15	43.6	43.6	43.6	95	42.3	0	0	---	0.00	30.078 
03:20	43.6	43.6	43.6	95	42.3	0	0	---	0.00	30.078 
03:25	43.6	43.6	43.6	95	42.3	0	0	---	0.00	30.078 
03:30	43.6	43.6	43.6	95	42.3	0	0	---	0.00	30.075 
03:35	43.6	43.6	43.6	95	42.3	0	0	---	0.00	30.075 
03:40	43.6	43.6	43.6	95	42.3	0	0	---	0.00	30.075 
03:45	43.5	43.5	43.5	95	42.2	0	0	---	0.00	30.077 
03:50	43.5	43.5	43.5	95	42.2	0	0	---	0.00	30.077 
03:55	43.6	43.6	43.6	96	42.5	0	0	---	0.00	30.077 
04:00	43.6	43.6	43.6	96	42.5	0	0	---	0.00	30.075 
04:05	43.6	43.6	43.6	96	42.5	0	1	225	0.00	30.075 
04:10	43.6	43.6	43.6	96	42.5	0	1	225	0.00	30.075 
04:15	43.6	43.6	43.6	96	42.5	0	1	225	0.00	30.080 
04:20	43.8	43.8	43.8	96	42.7	0	1	225	0.00	30.080 
04:25	43.8	43.8	43.8	96	42.7	0	1	225	0.00	30.080 
04:30	43.8	43.8	43.8	96	42.7	0	1	225	0.00	30.075 
04:35	43.8	43.8	43.8	96	42.7	0	1	225	0.00	30.075 
04:40	43.8	43.8	43.8	96	42.7	0	1	225	0.00	30.075 
04:45	43.8	43.8	43.8	96	42.7	0	2	225	0.00	30.075 
04:50	43.6	43.6	43.6	96	42.5	0	2	225	0.00	30.075 
04:55	43.5	43.5	43.5	96	42.4	0	1	225	0.00	30.075 
05:00	43.3	43.3	43.3	96	42.2	0	1	225	0.00	30.076 
05:05	43.2	43.2	43.2	96	42.1	0	2	225	0.00	30.076 
05:10	43.1	43.1	43.1	96	42.0	0	1	225	0.00	30.076 
05:15	42.9	42.9	42.9	96	41.8	0	0	---	0.00	30.076 
05:20	42.8	42.8	42.8	96	41.7	0	1	225	0.00	30.076 
05:25	42.8	42.8	42.8	96	41.7	0	1	225	0.00	30.076 
05:30	42.8	42.8	42.8	96	41.7	0	1	225	0.00	30.082 
05:35	42.8	42.8	42.8	96	41.7	0	2	225	0.00	30.082 
05:40	42.8	42.8	42.8	96	41.7	0	1	225	0.00	30.082 
05:45	42.8	42.8	42.8	96	41.7	0	1	225	0.00	30.090 
05:50	42.9	42.9	42.9	96	41.8	0	3	225	0.00	30.090 
05:55	42.9	42.9	42.9	96	41.8	0	1	225	0.00	30.090 
06:00	42.9	42.9	42.9	96	41.8	0	2	225	0.00	30.092 
06:05	42.9	42.9	42.9	96	41.8	0	2	225	0.00	30.092 
06:10	42.9	42.9	42.9	96	41.8	0	2	225	0.00	30.092 
06:15	42.9	42.9	42.9	96	41.8	0	1	225	0.00	30.102 
06:20	42.9	42.9	42.9	96	41.8	0	2	225	0.00	30.102 
06:25	42.9	42.9	42.9	96	41.8	0	2	225	0.00	30.102 
06:30	42.8	42.8	42.8	96	41.7	0	3	225	0.00	30.107 
06:35	42.8	42.8	42.8	96	41.7	0	2	225	0.00	30.107 
06:40	42.6	42.6	42.6	96	41.5	0	2	225	0.00	30.107 
06:45	42.6	42.6	42.6	96	41.5	0	1	225	0.00	30.108 
06:50	42.6	42.6	42.6	95	41.3	0	3	225	0.00	30.108 
06:55	42.6	42.6	42.6	95	41.3	1	2	225	0.00	30.108 
07:00	42.6	42.6	42.6	95	41.3	0	2	225	0.00	30.111 
07:05	42.6	42.6	42.6	95	41.3	0	2	225	0.00	30.111 
07:10	42.6	42.6	42.6	95	41.3	1	2	225	0.00	30.111 
07:15	42.6	42.6	42.6	95	41.3	0	3	248	0.00	30.110 
07:20	42.6	42.6	42.6	95	41.3	0	2	248	0.00	30.110 
07:25	42.6	42.6	42.6	95	41.3	0	2	248	0.00	30.110 
07:30	42.6	42.6	42.6	95	41.3	0	1	248	0.00	30.113 
07:35	42.6	42.6	42.6	95	41.3	0	2	248	0.00	30.113 
07:40	42.5	42.5	42.5	94	40.9	0	1	248	0.00	30.113 
07:45	42.6	42.6	42.6	94	41.0	0	2	248	0.00	30.114 
07:50	42.6	42.6	42.6	94	41.0	0	2	248	0.00	30.114 
07:55	42.6	42.6	42.6	94	41.0	0	1	248	0.00	30.114 
08:00	42.6	42.6	42.6	94	41.0	0	2	248	0.00	30.118 
08:05	42.6	42.6	42.6	94	41.0	0	2	248	0.00	30.118 
08:10	42.6	42.6	42.6	94	41.0	0	2	248	0.00	30.118 
08:15	42.8	42.8	42.8	94	41.2	0	2	248	0.00	30.121 
08:20	42.8	42.8	42.8	94	41.2	1	2	248	0.00	30.121 
08:25	42.8	42.8	42.8	93	40.9	1	3	248	0.00	30.121 
08:30	42.8	42.8	42.8	93	40.9	0	2	248	0.00	30.119 
08:35	42.9	42.9	42.9	93	41.0	1	4	248	0.00	30.119 
08:40	43.1	43.1	43.1	93	41.2	1	3	248	0.00	30.119 
08:45	43.1	43.1	43.1	92	40.9	1	5	248	0.00	30.122 
08:50	43.2	43.2	43.2	92	41.0	0	4	225	0.00	30.122 
08:55	43.2	43.2	43.2	92	41.0	1	4	225	0.00	30.122 
09:00	43.3	43.3	43.3	92	41.1	0	2	248	0.00	30.123 
09:05	43.3	43.3	43.3	91	40.9	1	5	270	0.00	30.123 
09:10	43.3	43.3	43.3	91	40.9	0	2	270	0.00	30.123 
09:15	43.5	43.5	43.5	91	41.0	0	4	270	0.00	30.129 
09:20	43.3	43.3	43.3	90	40.6	1	3	225	0.00	30.129 
09:25	43.5	43.5	43.5	90	40.8	1	3	248	0.00	30.129 
09:30	43.6	43.6	43.6	90	40.9	1	4	248	0.00	30.129 
09:35	43.8	43.8	43.8	90	41.1	1	4	248	0.00	30.129 
09:40	43.9	43.9	43.9	89	40.9	0	3	248	0.00	30.129 
09:45	44.1	44.1	44.1	89	41.1	1	5	248	0.00	30.126 
09:50	44.1	44.1	44.1	88	40.8	2	6	248	0.00	30.126 
09:55	44.2	44.2	44.2	87	40.6	1	3	248	0.00	30.126 
10:00	44.2	44.2	44.2	87	40.6	2	4	248	0.00	30.127 
10:05	44.5	44.5	44.5	86	40.6	1	5	248	0.00	30.127 
10:10	44.6	44.6	44.6	85	40.4	1	6	248	0.00	30.127 
10:15	44.6	44.6	44.6	84	40.1	2	5	248	0.00	30.126 
10:20	44.6	44.6	44.6	84	40.1	1	3	248	0.00	30.126 
10:25	44.6	44.6	44.6	84	40.1	1	4	248	0.00	30.126 
10:30	44.6	44.6	44.6	83	39.8	2	4	248	0.00	30.127 
10:35	44.6	44.6	44.6	83	39.8	1	4	248	0.00	30.127 
10:40	44.8	44.8	44.8	83	40.0	1	4	270	0.00	30.127 
10:45	44.8	44.8	44.8	83	40.0	2	9	248	0.00	30.127 
10:50	44.8	44.8	44.8	82	39.6	2	5	248	0.00	30.127 
10:55	44.6	44.6	44.6	82	39.4	3	9	248	0.00	30.127 
11:00	44.6	44.6	44.6	82	39.4	1	5	248	0.00	30.132 
11:05	44.6	44.6	44.6	82	39.4	3	7	248	0.00	30.132 
11:10	44.8	44.8	44.8	82	39.6	2	6	248	0.00	30.132 
11:15	44.9	44.9	44.9	82	39.7	2	5	248	0.00	30.129 
11:20	44.9	44.9	44.9	83	40.1	2	4	270	0.00	30.129 
11:25	45.1	45.1	45.1	82	39.9	2	6	248	0.00	30.129 
11:30	45.1	45.1	45.1	82	39.9	2	5	248	0.00	30.122 
11:35	45.2	45.2	45.2	82	40.0	1	4	248	0.00	30.122 
11:40	45.4	45.4	45.4	82	40.2	1	4	248	0.00	30.122 
11:45	45.4	45.4	45.4	81	39.9	2	8	248	0.00	30.118 
11:50	45.4	45.4	45.4	81	39.9	2	7	248	0.00	30.118 
11:55	45.5	45.5	45.5	81	40.0	2	7	248	0.00	30.118 
12:00	45.4	45.4	45.4	81	39.9	2	5	248	0.00	30.117 
12:05	45.5	45.5	45.5	81	40.0	2	4	270	0.00	30.117 
12:10	45.8	45.8	45.8	82	40.6	2	6	270	0.00	30.117 
12:15	46.0	46.0	46.0	81	40.5	2	7	248	0.00	30.112 
12:20	46.1	46.1	46.1	80	40.3	3	5	248	0.00	30.112 
12:25	46.2	46.2	46.2	79	40.1	2	7	248	0.00	30.112 
12:30	46.2	46.2	46.2	79	40.1	2	5	248	0.00	30.107 
12:35	46.2	46.2	46.2	79	40.1	2	5	248	0.00	30.107 
12:40	46.2	46.2	46.2	79	40.1	2	12	248	0.00	30.107 
12:45	46.2	46.2	46.2	78	39.7	2	7	248	0.00	30.103 
12:50	46.2	46.2	46.2	78	39.7	2	6	248	0.00	30.103 
12:55	46.4	46.4	46.4	78	39.9	2	6	270	0.00	30.103 
13:00	46.4	46.4	46.4	78	39.9	2	5	248	0.00	30.097 
13:05	46.4	46.4	46.4	78	39.9	2	6	248	0.00	30.097 
13:10	46.5	46.5	46.5	78	40.0	2	9	248	0.00	30.097 
13:15	46.7	46.7	46.7	77	39.9	3	9	248	0.00	30.094 
13:20	46.5	46.5	46.5	76	39.3	3	7	248	0.00	30.094 
13:25	46.5	46.5	46.5	76	39.3	2	6	248	0.00	30.094 
13:30	46.5	46.5	46.5	77	39.7	1	4	248	0.00	30.091 
13:35	46.4	46.4	46.4	77	39.6	2	6	248	0.00	30.091 
13:40	46.4	46.4	46.4	78	39.9	1	3	248	0.00	30.091 
13:45	46.4	46.4	46.4	78	39.9	2	5	248	0.00	30.086 
13:50	46.4	46.4	46.4	79	40.2	1	4	248	0.00	30.086 
13:55	46.4	46.4	46.4	78	39.9	2	5	248	0.00	30.086 
14:00	46.4	46.4	46.4	78	39.9	2	5	248	0.00	30.081 
14:05	46.4	46.4	46.4	79	40.2	1	3	248	0.00	30.081 
14:10	46.5	46.5	46.5	79	40.3	2	5	248	0.00	30.081 
14:15	46.5	46.5	46.5	79	40.3	2	10	248	0.00	30.080 
14:20	46.7	46.7	46.7	79	40.5	2	5	225	0.00	30.080 
14:25	46.7	46.7	46.7	79	40.5	1	4	248	0.00	30.080 
14:30	46.5	46.5	46.5	78	40.0	2	5	248	0.00	30.080 
14:35	46.4	46.4	46.4	78	39.9	2	6	248	0.00	30.080 
14:40	46.2	46.2	46.2	79	40.1	1	4	248	0.00	30.080 
14:45	46.2	46.2	46.2	80	40.4	0	4	248	0.00	30.079 
14:50	46.4	46.4	46.4	80	40.6	1	3	248	0.00	30.079 
14:55	46.5	46.5	46.5	79	40.3	1	4	248	0.00	30.079 
15:00	46.5	46.5	46.5	78	40.0	2	4	248	0.00	30.078 
15:05	46.5	46.5	46.5	78	40.0	2	6	248	0.00	30.078 
15:10	46.4	46.4	46.4	78	39.9	2	6	248	0.00	30.078 
15:15	46.4	46.4	46.4	79	40.2	2	7	248	0.00	30.078 
15:20	46.2	46.2	46.2	80	40.4	2	6	248	0.00	30.078 
15:25	46.2	46.2	46.2	80	40.4	1	3	248	0.00	30.078 
15:30	46.0	46.0	46.0	80	40.2	2	6	248	0.00	30.080 
15:35	45.8	45.8	45.8	81	40.3	2	5	225	0.00	30.080 
15:40	45.5	45.5	45.5	82	40.3	2	5	270	0.00	30.080 
15:45	45.4	45.4	45.4	83	40.5	2	6	248	0.00	30.084 
15:50	45.1	45.1	45.1	84	40.6	1	4	248	0.00	30.084 
15:55	44.9	44.9	44.9	85	40.7	1	4	248	0.00	30.084 
16:00	44.6	44.6	44.6	86	40.7	1	4	248	0.00	30.085 
16:05	44.5	44.5	44.5	86	40.6	1	4	248	0.00	30.085 
16:10	44.3	44.3	44.3	87	40.7	1	4	225	0.00	30.085 
16:15	44.3	44.3	44.3	88	41.0	0	1	225	0.00	30.089 
16:20	44.2	44.2	44.2	88	40.9	0	2	225	0.00	30.089 
16:25	44.2	44.2	44.2	89	41.2	0	2	225	0.00	30.089 
16:30	44.1	44.1	44.1	89	41.1	0	2	225	0.00	30.091 
16:35	44.1	44.1	44.1	89	41.1	0	0	---	0.00	30.091 
16:40	43.9	43.9	43.9	90	41.2	0	1	225	0.00	30.091 
16:45	43.9	43.9	43.9	90	41.2	0	0	---	0.00	30.088 
16:50	43.8	43.8	43.8	90	41.1	0	1	225	0.00	30.088 
16:55	43.8	43.8	43.8	90	41.1	0	0	---	0.00	30.088 
17:00	43.8	43.8	43.8	91	41.3	0	0	---	0.00	30.092 
17:05	43.8	43.8	43.8	91	41.3	0	1	225	0.00	30.092 
17:10	43.8	43.8	43.8	91	41.3	0	0	---	0.00	30.092 
17:15	43.8	43.8	43.8	91	41.3	0	0	---	0.00	30.096 
17:20	43.6	43.6	43.6	91	41.1	1	4	225	0.00	30.096 
17:25	43.5	43.5	43.5	91	41.0	2	6	248	0.00	30.096 
17:30	43.3	43.3	43.3	91	40.9	1	7	248	0.00	30.097 
17:35	43.3	43.3	43.3	91	40.9	1	4	225	0.00	30.097 
17:40	43.3	43.3	43.3	90	40.6	2	4	248	0.00	30.097 
17:45	43.2	43.2	43.2	90	40.5	1	3	248	0.00	30.101 
17:50	43.2	43.2	43.2	90	40.5	1	4	248	0.00	30.101 
17:55	43.1	43.1	43.1	90	40.4	1	4	248	0.00	30.101 
18:00	43.1	43.1	43.1	90	40.4	1	4	248	0.00	30.101 
18:05	43.1	43.1	43.1	90	40.4	1	3	248	0.00	30.101 
18:10	42.9	42.9	42.9	90	40.2	1	4	248	0.00	30.101 
18:15	43.1	43.1	43.1	89	40.1	1	4	248	0.00	30.103 
18:20	43.1	43.1	43.1	89	40.1	0	4	248	0.00	30.103 
18:25	43.1	43.1	43.1	89	40.1	0	3	248	0.00	30.103 
18:30	43.1	43.1	43.1	89	40.1	0	3	270	0.00	30.104 
18:35	43.1	43.1	43.1	89	40.1	0	2	225	0.00	30.104 
18:40	43.1	43.1	43.1	89	40.1	0	2	225	0.00	30.104 
18:45	43.1	43.1	43.1	89	40.1	0	4	248	0.00	30.107 
18:50	43.1	43.1	43.1	89	40.1	1	4	248	0.00	30.107 
18:55	43.2	43.2	43.2	89	40.2	0	3	248	0.00	30.107 
19:00	43.2	43.2	43.2	89	40.2	0	2	248	0.00	30.102 
19:05	43.2	43.2	43.2	89	40.2	0	2	248	0.00	30.102 
19:10	43.2	43.2	43.2	88	39.9	2	6	248	0.00	30.102 
19:15	43.2	43.2	43.2	88	39.9	1	4	202	0.00	30.103 
19:20	43.2	43.2	43.2	88	39.9	1	5	270	0.00	30.103 
19:25	43.2	43.2	43.2	88	39.9	1	4	248	0.00	30.103 
19:30	43.2	43.2	43.2	88	39.9	1	3	248	0.00	30.098 
19:35	43.2	43.2	43.2	88	39.9	2	4	248	0.00	30.098 
19:40	43.3	43.3	43.3	88	40.0	1	4	248	0.00	30.098 
19:45	43.3	43.3	43.3	88	40.0	0	5	248	0.00	30.101 
19:50	43.3	43.3	43.3	88	40.0	1	3	248	0.00	30.101 
19:55	43.3	43.3	43.3	89	40.3	1	3	248	0.00	30.101 
20:00	43.3	43.3	43.3	89	40.3	0	4	248	0.00	30.108 
20:05	43.3	43.3	43.3	89	40.3	1	6	248	0.00	30.108 
20:10	43.3	43.3	43.3	89	40.3	1	3	248	0.00	30.108 
20:15	43.3	43.3	43.3	89	40.3	1	5	248	0.00	30.110 
20:20	43.3	43.3	43.3	89	40.3	1	4	248	0.00	30.110 
20:25	43.5	43.5	43.5	89	40.5	1	4	248	0.00	30.110 
20:30	43.3	43.3	43.3	90	40.6	1	3	248	0.00	30.108 
20:35	43.3	43.3	43.3	90	40.6	0	2	248	0.00	30.108 
20:40	43.3	43.3	43.3	90	40.6	0	2	248	0.00	30.108 
20:45	43.3	43.3	43.3	91	40.9	1	4	248	0.00	30.111 
20:50	43.3	43.3	43.3	91	40.9	1	4	248	0.00	30.111 
20:55	43.2	43.2	43.2	91	40.8	2	5	248	0.00	30.111 
21:00	43.2	43.2	43.2	92	41.0	1	4	248	0.00	30.110 
21:05	43.3	43.3	43.3	92	41.1	1	2	248	0.00	30.110 
21:10	43.3	43.3	43.3	92	41.1	0	2	248	0.00	30.110 
21:15	43.3	43.3	43.3	92	41.1	1	4	248	0.00	30.110 
21:20	43.3	43.3	43.3	92	41.1	1	3	248	0.00	30.110 
21:25	43.3	43.3	43.3	92	41.1	1	3	248	0.00	30.110 
21:30	43.3	43.3	43.3	92	41.1	0	1	248	0.00	30.110 
21:35	43.3	43.3	43.3	92	41.1	1	4	248	0.00	30.110 
21:40	43.3	43.3	43.3	92	41.1	1	3	248	0.00	30.110 
21:45	43.3	43.3	43.3	92	41.1	1	5	248	0.00	30.113 
21:50	43.5	43.5	43.5	92	41.3	1	4	248	0.00	30.113 
21:55	43.5	43.5	43.5	92	41.3	0	2	248	0.00	30.113 
22:00	43.5	43.5	43.5	92	41.3	0	4	248	0.00	30.112 
22:05	43.5	43.5	43.5	92	41.3	1	5	248	0.00	30.112 
22:10	43.5	43.5	43.5	92	41.3	1	3	248	0.00	30.112 
22:15	43.5	43.5	43.5	92	41.3	1	5	248	0.00	30.110 
22:20	43.5	43.5	43.5	92	41.3	1	4	248	0.00	30.110 
22:25	43.6	43.6	43.6	92	41.4	1	5	248	0.00	30.110 
22:30	43.6	43.6	43.6	91	41.1	2	5	248	0.00	30.110 
22:35	43.8	43.8	43.8	91	41.3	1	4	248	0.00	30.110 
22:40	43.8	43.8	43.8	91	41.3	1	3	248	0.00	30.110 
22:45	43.8	43.8	43.8	91	41.3	1	3	248	0.00	30.113 
22:50	43.8	43.8	43.8	91	41.3	1	4	248	0.00	30.113 
22:55	43.8	43.8	43.8	91	41.3	1	4	248	0.00	30.113 
23:00	43.8	43.8	43.8	91	41.3	1	3	248	0.00	30.116 
23:05	43.8	43.8	43.8	91	41.3	1	4	248	0.00	30.116 
23:10	43.8	43.8	43.8	91	41.3	1	4	248	0.00	30.116 
23:15	43.8	43.8	43.8	91	41.3	1	4	248	0.00	30.121 
23:20	43.8	43.8	43.8	91	41.3	2	6	248	0.00	30.121 
23:25	43.8	43.8	43.8	91	41.3	1	6	248	0.00	30.121 
23:30	43.8	43.8	43.8	91	41.3	1	3	248	0.00	30.125 
23:35	43.8	43.8	43.8	91	41.3	2	7	248	0.00	30.125 
23:40	43.8	43.8	43.8	91	41.3	1	6	248	0.00	30.125 
23:45	43.8	43.8	43.8	91	41.3	1	4	248	0.00	30.125 
23:50	43.8	43.8	43.8	91	41.3	1	5	248	0.00	30.125 
23:55	43.8	43.8	43.8	91	41.3	1	5	248	0.00	30.125 

CoCoRaHS
IN-AL-39
A2 Web Hosting
Creative Commons License
GoDaddy
search engine by freefind advanced

loaded 2018-11-19 10:18:12 • last modified 2010-11-18 10:43:29
Privacy PolicyDisclaimer
• wx.awcolley.com is powered by PmWiki v.2002016 •
• all content (unless otherwise noted) © 2018 A W Colley